Terminal Aerodrome Forecast
Issued by NWS

Home | Current Version | Previous Version | Text Only | Print | Product List | Glossary Off
Versions: 1 2 3 4 5 6 7 8 9 10 11 12 13 14 15

938
FTUS43 KIWX 191949 AAA
TAFSBN
TAF AMD
KSBN 191949Z 1920/2018 33007KT P6SM SKC
     FM200200 VRB03KT P6SM FEW250
     FM200600 11004KT 3SM BR FEW150
     FM200900 12005KT 1/2SM FG BKN004
     FM201400 13007KT 1SM BR BKN006
     FM201700 15010KT 6SM BR SCT150=

USA.gov is the U.S. government's official web portal to all federal, state and local government web resources and services.